createdAt,value
2017-10-17T00:00:45.974Z,101439
2017-10-17T00:03:14.099Z,101445
2017-10-17T00:05:42.286Z,101452
2017-10-17T00:08:10.969Z,101448
2017-10-17T00:10:39.133Z,101445
2017-10-17T00:13:07.350Z,101434
2017-10-17T00:15:35.530Z,101442
2017-10-17T00:18:03.757Z,101440
2017-10-17T00:20:31.971Z,101443
2017-10-17T00:23:00.142Z,101432
2017-10-17T00:25:28.377Z,101438
2017-10-17T00:27:56.702Z,101434
2017-10-17T00:30:25.010Z,101435
2017-10-17T00:32:55.524Z,101441
2017-10-17T00:35:23.803Z,101448
2017-10-17T00:37:57.707Z,101444
2017-10-17T00:40:26.266Z,101444
2017-10-17T00:42:57.989Z,101447
2017-10-17T00:45:26.642Z,101441
2017-10-17T00:47:55.023Z,101453
2017-10-17T00:50:23.358Z,101447
2017-10-17T00:52:53.140Z,101440
2017-10-17T00:55:21.546Z,101437
2017-10-17T00:57:50.994Z,101450
2017-10-17T01:00:19.234Z,101440
2017-10-17T01:02:47.450Z,101440
2017-10-17T01:05:16.515Z,101451
2017-10-17T01:07:44.785Z,101444
2017-10-17T01:10:12.990Z,101448
2017-10-17T01:12:41.166Z,101443
2017-10-17T01:15:09.333Z,101443
2017-10-17T01:17:37.603Z,101456
2017-10-17T01:20:06.046Z,101443
2017-10-17T01:22:34.275Z,101442
2017-10-17T01:25:02.542Z,101439
2017-10-17T01:27:30.858Z,101443
2017-10-17T01:29:59.161Z,101435
2017-10-17T01:32:27.698Z,101441
2017-10-17T01:34:56.741Z,101444
2017-10-17T01:37:25.017Z,101439
2017-10-17T01:39:53.458Z,101443
2017-10-17T01:42:21.822Z,101451
2017-10-17T01:44:50.830Z,101444
2017-10-17T01:47:19.113Z,101451
2017-10-17T01:49:47.386Z,101448
2017-10-17T01:52:15.685Z,101446
2017-10-17T01:54:43.979Z,101447
2017-10-17T01:57:12.252Z,101445
2017-10-17T01:59:40.546Z,101440
2017-10-17T02:02:08.805Z,101433
2017-10-17T02:04:37.097Z,101442
2017-10-17T02:07:05.434Z,101429
2017-10-17T02:09:39.554Z,101431
2017-10-17T02:12:07.856Z,101435
2017-10-17T02:14:36.114Z,101431
2017-10-17T02:17:04.398Z,101427
2017-10-17T02:19:32.673Z,101413
2017-10-17T02:22:01.066Z,101402
2017-10-17T02:24:29.457Z,101413
2017-10-17T02:26:57.854Z,101422
2017-10-17T02:29:27.606Z,101415
2017-10-17T02:31:55.903Z,101406
2017-10-17T02:34:24.486Z,101409
2017-10-17T02:36:52.871Z,101404
2017-10-17T02:39:21.456Z,101406
2017-10-17T02:41:49.754Z,101402
2017-10-17T02:44:18.057Z,101402
2017-10-17T02:46:46.435Z,101408
2017-10-17T02:49:15.474Z,101411
2017-10-17T02:51:43.818Z,101411
2017-10-17T02:54:12.803Z,101408
2017-10-17T02:56:41.050Z,101415
2017-10-17T02:59:09.319Z,101411
2017-10-17T03:01:37.700Z,101407
2017-10-17T03:04:05.974Z,101412
2017-10-17T03:06:34.335Z,101419
2017-10-17T03:09:02.898Z,101414
2017-10-17T03:11:31.198Z,101422
2017-10-17T03:13:59.498Z,101429
2017-10-17T03:16:27.774Z,101435
2017-10-17T03:18:56.191Z,101434
2017-10-17T03:21:24.666Z,101428
2017-10-17T03:23:53.545Z,101432
2017-10-17T03:26:21.770Z,101424
2017-10-17T03:28:50.070Z,101427
2017-10-17T03:31:18.374Z,101430
2017-10-17T03:33:46.650Z,101437
2017-10-17T03:36:14.977Z,101436
2017-10-17T03:38:43.342Z,101432
2017-10-17T03:41:11.666Z,101428
2017-10-17T03:43:40.040Z,101435
2017-10-17T03:46:09.818Z,101437
2017-10-17T03:48:38.226Z,101428
2017-10-17T03:51:06.587Z,101431
2017-10-17T03:53:34.904Z,101431
2017-10-17T03:56:03.358Z,101432
2017-10-17T03:58:31.951Z,101435
2017-10-17T04:01:00.140Z,101434
2017-10-17T04:03:29.005Z,101436
2017-10-17T04:05:57.326Z,101433
2017-10-17T04:08:25.559Z,101435
2017-10-17T04:10:53.850Z,101435
2017-10-17T04:13:22.107Z,101443
2017-10-17T04:15:50.333Z,101431
2017-10-17T04:18:18.622Z,101440
2017-10-17T04:20:47.643Z,101442
2017-10-17T04:23:15.966Z,101428
2017-10-17T04:25:44.264Z,101441
2017-10-17T04:28:13.309Z,101440
2017-10-17T04:30:41.584Z,101457
2017-10-17T04:33:09.850Z,101442
2017-10-17T04:35:38.188Z,101446
2017-10-17T04:38:07.256Z,101438
2017-10-17T04:40:35.673Z,101448
2017-10-17T04:43:17.483Z,101452
2017-10-17T04:45:45.710Z,101442
2017-10-17T04:48:16.434Z,101438
2017-10-17T04:50:44.925Z,101450
2017-10-17T04:53:20.966Z,101451
2017-10-17T04:55:49.653Z,101453
2017-10-17T04:58:18.478Z,101447
2017-10-17T05:00:47.069Z,101439
2017-10-17T05:03:15.412Z,101444
2017-10-17T05:05:44.117Z,101441
2017-10-17T05:08:12.614Z,101447
2017-10-17T05:10:41.052Z,101447
2017-10-17T05:13:09.756Z,101438
2017-10-17T05:15:38.001Z,101449
2017-10-17T05:18:06.256Z,101448
2017-10-17T05:20:34.538Z,101451
2017-10-17T05:23:03.327Z,101443
2017-10-17T05:25:31.628Z,101444
2017-10-17T05:28:03.126Z,101441
2017-10-17T05:30:32.158Z,101436
2017-10-17T05:33:08.781Z,101438
2017-10-17T05:35:36.996Z,101444
2017-10-17T05:38:05.297Z,101449
2017-10-17T05:40:33.681Z,101443
2017-10-17T05:43:01.982Z,101446
2017-10-17T05:45:30.396Z,101447
2017-10-17T05:47:59.635Z,101448
2017-10-17T05:50:28.276Z,101454
2017-10-17T05:52:57.246Z,101449
2017-10-17T05:55:25.354Z,101454
2017-10-17T05:57:53.510Z,101459
2017-10-17T06:00:22.374Z,101452
2017-10-17T06:02:50.514Z,101457
2017-10-17T06:05:18.688Z,101455
2017-10-17T06:07:46.770Z,101459
2017-10-17T06:10:14.906Z,101457
2017-10-17T06:12:44.318Z,101464
2017-10-17T06:15:12.471Z,101469
2017-10-17T06:17:41.330Z,101473
2017-10-17T06:20:09.461Z,101468
2017-10-17T06:22:37.578Z,101469
2017-10-17T06:25:05.702Z,101477
2017-10-17T06:27:33.802Z,101476
2017-10-17T06:30:01.915Z,101489
2017-10-17T06:32:30.032Z,101491
2017-10-17T06:34:58.150Z,101486
2017-10-17T06:37:27.757Z,101486
2017-10-17T06:39:55.845Z,101489
2017-10-17T06:42:23.935Z,101491
2017-10-17T06:44:52.766Z,101504
2017-10-17T06:47:20.962Z,101505
2017-10-17T06:49:49.080Z,101497
2017-10-17T06:52:17.167Z,101497
2017-10-17T06:54:45.243Z,101500
2017-10-17T06:57:13.407Z,101499
2017-10-17T06:59:41.518Z,101507
2017-10-17T07:02:09.641Z,101507
2017-10-17T07:04:37.731Z,101510
2017-10-17T07:07:05.872Z,101502
2017-10-17T07:09:34.766Z,101501
2017-10-17T07:12:03.691Z,101514
2017-10-17T07:14:31.842Z,101506
2017-10-17T07:16:59.930Z,101497
2017-10-17T07:19:28.041Z,101492
2017-10-17T07:21:56.177Z,101508
2017-10-17T07:24:24.353Z,101510
2017-10-17T07:26:52.505Z,101510
2017-10-17T07:29:21.350Z,101519
2017-10-17T07:31:49.650Z,101510
2017-10-17T07:34:17.779Z,101517
2017-10-17T07:36:45.917Z,101509
2017-10-17T07:39:14.011Z,101513
2017-10-17T07:41:42.075Z,101511
2017-10-17T07:44:10.163Z,101511
2017-10-17T07:46:38.253Z,101514
2017-10-17T07:49:06.846Z,101351
2017-10-17T07:51:34.974Z,101527
2017-10-17T07:54:03.114Z,101520
2017-10-17T07:56:31.242Z,101524
2017-10-17T07:58:59.363Z,101527
2017-10-17T08:01:27.461Z,101518
2017-10-17T08:03:55.530Z,101523
2017-10-17T08:06:23.675Z,101526
2017-10-17T08:08:51.827Z,101515
2017-10-17T08:11:19.990Z,101515
2017-10-17T08:13:48.425Z,101525
2017-10-17T08:16:16.555Z,101521
2017-10-17T08:18:44.630Z,101527
2017-10-17T08:21:12.734Z,101516
2017-10-17T08:23:40.830Z,101513
2017-10-17T08:26:08.970Z,101515
2017-10-17T08:28:37.039Z,101507
2017-10-17T08:31:05.150Z,101514
2017-10-17T08:33:33.269Z,101510
2017-10-17T08:36:01.398Z,101520
2017-10-17T08:38:29.586Z,101517
2017-10-17T08:40:57.730Z,101522
2017-10-17T08:43:26.579Z,101517
2017-10-17T08:45:54.718Z,101530
2017-10-17T08:48:22.950Z,101524
2017-10-17T08:50:51.498Z,101528
2017-10-17T08:53:19.641Z,101529
2017-10-17T08:55:47.726Z,101517
2017-10-17T08:58:15.870Z,101519
2017-10-17T09:00:44.754Z,101528
2017-10-17T09:03:13.624Z,101525
2017-10-17T09:05:41.692Z,101525
2017-10-17T09:08:09.884Z,101520
2017-10-17T09:10:39.656Z,101517
2017-10-17T09:13:07.746Z,101524
2017-10-17T09:15:35.833Z,101523
2017-10-17T09:18:04.027Z,101507
2017-10-17T09:20:32.222Z,101522
2017-10-17T09:23:00.301Z,101515
2017-10-17T09:25:28.373Z,101517
2017-10-17T09:27:56.482Z,101510
2017-10-17T09:30:24.575Z,101523
2017-10-17T09:32:54.303Z,101524
2017-10-17T09:35:22.398Z,101518
2017-10-17T09:37:50.518Z,101514
2017-10-17T09:40:18.619Z,101508
2017-10-17T09:42:47.673Z,101523
2017-10-17T09:45:15.801Z,101510
2017-10-17T09:47:44.661Z,101503
2017-10-17T09:50:12.758Z,101503
2017-10-17T09:52:42.062Z,101513
2017-10-17T09:55:10.900Z,101504
2017-10-17T09:57:39.022Z,101517
2017-10-17T10:00:07.894Z,101515
2017-10-17T10:02:36.010Z,101519
2017-10-17T10:05:04.208Z,101528
2017-10-17T10:07:32.338Z,101527
2017-10-17T10:10:01.175Z,101527
2017-10-17T10:12:29.343Z,101523
2017-10-17T10:14:57.489Z,101524
2017-10-17T10:17:25.656Z,101530
2017-10-17T10:19:54.545Z,101529
2017-10-17T10:22:23.449Z,101524
2017-10-17T10:24:51.614Z,101531
2017-10-17T10:27:19.770Z,101497
2017-10-17T10:29:48.614Z,101524
2017-10-17T10:32:16.710Z,101521
2017-10-17T10:34:44.946Z,101517
2017-10-17T10:37:13.050Z,101516
2017-10-17T10:39:41.146Z,101514
2017-10-17T10:42:10.066Z,101519
2017-10-17T10:44:38.214Z,101517
2017-10-17T10:47:06.307Z,101518
2017-10-17T10:49:34.438Z,101510
2017-10-17T10:52:02.537Z,101507
2017-10-17T10:54:31.358Z,101505
2017-10-17T10:56:59.446Z,101503
2017-10-17T10:59:27.556Z,101514
2017-10-17T11:01:55.646Z,101503
2017-10-17T11:04:24.599Z,101501
2017-10-17T11:06:52.752Z,101520
2017-10-17T11:09:20.854Z,101507
2017-10-17T11:11:48.968Z,101497
2017-10-17T11:14:17.106Z,101494
2017-10-17T11:16:45.263Z,101497
2017-10-17T11:19:13.355Z,101475
2017-10-17T11:21:41.494Z,101491
2017-10-17T11:24:09.709Z,101489
2017-10-17T11:26:37.862Z,101486
2017-10-17T11:29:05.970Z,101468
2017-10-17T11:31:34.103Z,101479
2017-10-17T11:34:02.246Z,101476
2017-10-17T11:36:30.441Z,101469
2017-10-17T11:38:58.599Z,101474
2017-10-17T11:43:59.559Z,101474
2017-10-17T11:46:27.781Z,101460
2017-10-17T11:48:55.959Z,101459
2017-10-17T11:51:24.078Z,101471
2017-10-17T11:53:52.193Z,101460
2017-10-17T11:56:20.295Z,101449
2017-10-17T11:58:48.395Z,101450
2017-10-17T12:01:16.569Z,101437
2017-10-17T12:03:44.702Z,101438
2017-10-17T12:06:13.606Z,101445
2017-10-17T12:08:41.728Z,101434
2017-10-17T12:11:09.938Z,101436
2017-10-17T12:13:38.288Z,101439
2017-10-17T12:16:06.430Z,101436
2017-10-17T12:18:34.605Z,101347
2017-10-17T12:21:02.827Z,101433
2017-10-17T12:23:31.714Z,101440
2017-10-17T12:25:59.909Z,101440
2017-10-17T12:28:28.018Z,101436
2017-10-17T12:30:56.146Z,101434
2017-10-17T12:33:24.238Z,101434
2017-10-17T12:35:52.371Z,101428
2017-10-17T12:38:20.470Z,101426
2017-10-17T12:40:48.591Z,101426
2017-10-17T12:43:16.658Z,101421
2017-10-17T12:45:44.754Z,101409
2017-10-17T12:48:12.863Z,101419
2017-10-17T12:50:40.973Z,101418
2017-10-17T12:53:09.104Z,101426
2017-10-17T12:55:37.940Z,101427
2017-10-17T12:58:06.066Z,101417
2017-10-17T13:00:34.246Z,101420
2017-10-17T13:03:02.357Z,101424
2017-10-17T13:05:30.446Z,101422
2017-10-17T13:07:58.612Z,101421
2017-10-17T13:10:26.751Z,101413
2017-10-17T13:12:54.906Z,101413
2017-10-17T13:15:23.126Z,101413
2017-10-17T13:17:51.313Z,101416
2017-10-17T13:20:19.505Z,101417
2017-10-17T13:22:47.645Z,101417
2017-10-17T13:25:15.817Z,101408
2017-10-17T13:27:43.966Z,101408
2017-10-17T13:30:12.814Z,101412
2017-10-17T13:32:40.942Z,101407
2017-10-17T13:35:09.818Z,101411
2017-10-17T13:37:38.682Z,101410
2017-10-17T13:40:06.775Z,101403
2017-10-17T13:42:34.857Z,101387
2017-10-17T13:45:03.009Z,101400
2017-10-17T13:47:31.142Z,101406
2017-10-17T13:49:59.230Z,101408
2017-10-17T13:52:27.377Z,101404
2017-10-17T13:54:55.478Z,101404
2017-10-17T13:57:23.604Z,101392
2017-10-17T13:59:51.682Z,101392
2017-10-17T14:02:19.768Z,101394
2017-10-17T14:04:47.901Z,101402
2017-10-17T14:07:16.001Z,101377
2017-10-17T14:09:44.174Z,101385
2017-10-17T14:12:12.296Z,101374
2017-10-17T14:14:40.786Z,101413
2017-10-17T14:17:08.975Z,101380
2017-10-17T14:19:37.071Z,101382
2017-10-17T14:22:05.205Z,101377
2017-10-17T14:24:33.325Z,101373
2017-10-17T14:27:01.489Z,101389
2017-10-17T14:29:29.631Z,101383
2017-10-17T14:31:57.729Z,101373
2017-10-17T14:34:26.621Z,101375
2017-10-17T14:36:55.460Z,101375
2017-10-17T14:39:23.547Z,101378
2017-10-17T14:41:51.685Z,101370
2017-10-17T14:44:19.774Z,101363
2017-10-17T14:46:47.880Z,101366
2017-10-17T14:49:15.995Z,101371
2017-10-17T14:51:44.190Z,101365
2017-10-17T14:54:12.329Z,101364
2017-10-17T14:56:40.484Z,101370
2017-10-17T14:59:09.289Z,101357
2017-10-17T15:01:37.359Z,101366
2017-10-17T15:04:05.451Z,101361
2017-10-17T15:06:33.533Z,101365
2017-10-17T15:09:01.630Z,101357
2017-10-17T15:11:29.845Z,101346
2017-10-17T15:13:57.952Z,101340
2017-10-17T15:16:26.106Z,101332
2017-10-17T15:18:54.930Z,101333
2017-10-17T15:21:23.030Z,101338
2017-10-17T15:23:51.115Z,101341
2017-10-17T15:26:19.225Z,101346
2017-10-17T15:28:47.334Z,101336
2017-10-17T15:31:15.431Z,101343
2017-10-17T15:33:44.997Z,101343
2017-10-17T15:36:13.146Z,101349
2017-10-17T15:38:41.231Z,101346
2017-10-17T15:41:09.333Z,101343
2017-10-17T15:43:37.426Z,101334
2017-10-17T15:46:05.902Z,101331
2017-10-17T15:48:34.016Z,101333
2017-10-17T15:51:02.094Z,101333
2017-10-17T15:53:30.223Z,101324
2017-10-17T15:55:58.317Z,101331
2017-10-17T15:58:27.176Z,101319
2017-10-17T16:00:55.298Z,101331
2017-10-17T16:03:23.384Z,101321
2017-10-17T16:05:51.446Z,101322
2017-10-17T16:08:19.546Z,101316
2017-10-17T16:10:47.617Z,101315
2017-10-17T16:13:15.722Z,101307
2017-10-17T16:15:43.830Z,101314
2017-10-17T16:18:11.918Z,101312
2017-10-17T16:20:40.008Z,101315
2017-10-17T16:23:08.154Z,101306
2017-10-17T16:25:36.251Z,101311
2017-10-17T16:28:04.799Z,101306
2017-10-17T16:30:33.829Z,101310
2017-10-17T16:33:01.965Z,101289
2017-10-17T16:35:30.802Z,101305
2017-10-17T16:37:58.949Z,101309
2017-10-17T16:40:27.030Z,101313
2017-10-17T16:42:55.119Z,101307
2017-10-17T16:45:23.275Z,101300
2017-10-17T16:47:51.381Z,101291
2017-10-17T16:50:19.522Z,101291
2017-10-17T16:52:47.611Z,101297
2017-10-17T16:55:15.743Z,101289
2017-10-17T16:57:43.891Z,101293
2017-10-17T17:00:12.073Z,101289
2017-10-17T17:02:40.190Z,101296
2017-10-17T17:05:08.403Z,101290
2017-10-17T17:07:36.736Z,101286
2017-10-17T17:10:04.875Z,101294
2017-10-17T17:12:34.026Z,101270
2017-10-17T17:15:02.118Z,101278
2017-10-17T17:17:30.574Z,101280
2017-10-17T17:19:58.695Z,101279
2017-10-17T17:22:26.786Z,101278
2017-10-17T17:24:54.912Z,101277
2017-10-17T17:27:23.030Z,101282
2017-10-17T17:29:51.937Z,101274
2017-10-17T17:32:20.014Z,101280
2017-10-17T17:34:48.127Z,101277
2017-10-17T17:37:16.266Z,101294
2017-10-17T17:39:44.638Z,101296
2017-10-17T17:42:12.776Z,101297
2017-10-17T17:44:40.878Z,101292
2017-10-17T17:47:09.589Z,101295
2017-10-17T17:49:37.783Z,101291
2017-10-17T17:52:05.959Z,101282
2017-10-17T17:54:34.114Z,101284
2017-10-17T17:57:02.262Z,101278
2017-10-17T17:59:30.431Z,101278
2017-10-17T18:01:58.534Z,101268
2017-10-17T18:04:26.851Z,101286
2017-10-17T18:06:54.973Z,101277
2017-10-17T18:09:23.094Z,101277
2017-10-17T18:11:51.198Z,101264
2017-10-17T18:14:19.377Z,101274
2017-10-17T18:16:48.378Z,101273
2017-10-17T18:19:16.626Z,101266
2017-10-17T18:21:44.735Z,101269
2017-10-17T18:24:12.924Z,101282
2017-10-17T18:26:41.063Z,101270
2017-10-17T18:29:09.210Z,101269
2017-10-17T18:31:37.335Z,101268
2017-10-17T18:34:05.424Z,101277
2017-10-17T18:36:33.518Z,101260
2017-10-17T18:39:01.578Z,101272
2017-10-17T18:41:29.647Z,101271
2017-10-17T18:43:57.722Z,101272
2017-10-17T18:46:25.782Z,101268
2017-10-17T18:48:53.911Z,101285
2017-10-17T18:51:22.227Z,101280
2017-10-17T18:53:50.359Z,101277
2017-10-17T18:56:19.295Z,101270
2017-10-17T18:58:47.414Z,101267
2017-10-17T19:01:15.501Z,101268
2017-10-17T19:03:43.667Z,101268
2017-10-17T19:06:12.566Z,101270
2017-10-17T19:08:41.416Z,101269
2017-10-17T19:11:09.626Z,101271
2017-10-17T19:13:37.812Z,101259
2017-10-17T19:16:05.914Z,101270
2017-10-17T19:18:34.141Z,101276
2017-10-17T19:21:02.998Z,101272
2017-10-17T19:23:31.109Z,101289
2017-10-17T19:25:59.940Z,101289
2017-10-17T19:28:28.062Z,101276
2017-10-17T19:30:56.201Z,101278
2017-10-17T19:33:24.310Z,101286
2017-10-17T19:35:52.494Z,101284
2017-10-17T19:38:21.347Z,101281
2017-10-17T19:40:49.450Z,101288
2017-10-17T19:43:18.290Z,101297
2017-10-17T19:45:46.414Z,101302
2017-10-17T19:48:15.282Z,101296
2017-10-17T19:50:43.406Z,101302
2017-10-17T19:53:11.511Z,101293
2017-10-17T19:55:39.673Z,101297
2017-10-17T19:58:07.899Z,101292
2017-10-17T20:00:36.097Z,101293
2017-10-17T20:03:04.243Z,101293
2017-10-17T20:05:32.335Z,101301
2017-10-17T20:08:00.426Z,101308
2017-10-17T20:10:28.553Z,101314
2017-10-17T20:12:56.662Z,101311
2017-10-17T20:15:24.831Z,101310
2017-10-17T20:17:52.940Z,101309
2017-10-17T20:20:21.122Z,101309
2017-10-17T20:22:49.306Z,101303
2017-10-17T20:25:17.494Z,101303
2017-10-17T20:27:45.630Z,101302
2017-10-17T20:30:13.736Z,101303
2017-10-17T20:32:41.862Z,101306
2017-10-17T20:35:10.055Z,101310
2017-10-17T20:37:38.170Z,101305
2017-10-17T20:40:07.075Z,101310
2017-10-17T20:42:35.950Z,101314
2017-10-17T20:45:04.115Z,101309
2017-10-17T20:47:33.714Z,101310
2017-10-17T20:50:01.842Z,101306
2017-10-17T20:52:29.970Z,101306
2017-10-17T20:54:58.111Z,101297
2017-10-17T20:57:26.210Z,101298
2017-10-17T20:59:54.318Z,101306
2017-10-17T21:02:23.182Z,101306
2017-10-17T21:04:51.261Z,101307
2017-10-17T21:07:20.166Z,101306
2017-10-17T21:09:48.997Z,101308
2017-10-17T21:12:17.095Z,101300
2017-10-17T21:14:45.248Z,101305
2017-10-17T21:17:13.351Z,101295
2017-10-17T21:19:42.206Z,101289
2017-10-17T21:22:10.286Z,101281
2017-10-17T21:24:38.405Z,101285
2017-10-17T21:27:06.546Z,101295
2017-10-17T21:29:34.675Z,101293
2017-10-17T21:32:02.751Z,101293
2017-10-17T21:34:31.019Z,101305
2017-10-17T21:36:59.199Z,101304
2017-10-17T21:39:27.370Z,101284
2017-10-17T21:41:55.493Z,101281
2017-10-17T21:44:23.578Z,101277
2017-10-17T21:46:53.149Z,101279
2017-10-17T21:49:21.238Z,101269
2017-10-17T21:51:49.318Z,101269
2017-10-17T21:54:17.434Z,101272
2017-10-17T21:56:46.302Z,101271
2017-10-17T21:59:14.407Z,101270
2017-10-17T22:01:42.501Z,101262
2017-10-17T22:04:10.573Z,101266
2017-10-17T22:06:38.645Z,101261
2017-10-17T22:09:06.753Z,101276
2017-10-17T22:11:35.126Z,101267
2017-10-17T22:14:03.206Z,101249
2017-10-17T22:16:31.330Z,101258
2017-10-17T22:18:59.430Z,101253
2017-10-17T22:21:27.588Z,101243
2017-10-17T22:23:55.734Z,101240
2017-10-17T22:26:24.447Z,101241
2017-10-17T22:28:52.582Z,101244
2017-10-17T22:31:20.692Z,101234
2017-10-17T22:33:49.587Z,101237
2017-10-17T22:36:17.867Z,101240
2017-10-17T22:38:46.098Z,101238
2017-10-17T22:41:14.204Z,101229
2017-10-17T22:43:42.344Z,101224
2017-10-17T22:46:11.234Z,101220
2017-10-17T22:48:40.081Z,101224
2017-10-17T22:51:08.233Z,101216
2017-10-17T22:53:36.415Z,101223
2017-10-17T22:56:04.474Z,101223
2017-10-17T22:58:32.577Z,101223
2017-10-17T23:01:00.769Z,101211
2017-10-17T23:03:28.858Z,101215
2017-10-17T23:05:56.971Z,101205
2017-10-17T23:08:25.067Z,101205
2017-10-17T23:10:53.174Z,101194
2017-10-17T23:13:22.011Z,101215
2017-10-17T23:15:50.134Z,101210
2017-10-17T23:21:29.960Z,101209
2017-10-17T23:23:58.122Z,101194
2017-10-17T23:26:26.210Z,101194
2017-10-17T23:28:54.326Z,101200
2017-10-17T23:31:23.184Z,101202
2017-10-17T23:33:51.330Z,101217
2017-10-17T23:36:19.437Z,101207
2017-10-17T23:38:47.626Z,101197
2017-10-17T23:41:15.698Z,101199
2017-10-17T23:43:43.961Z,101198
2017-10-17T23:46:12.077Z,101202
2017-10-17T23:48:40.908Z,101210
2017-10-17T23:51:09.042Z,101199
2017-10-17T23:53:37.156Z,101187
2017-10-17T23:56:05.244Z,101203
2017-10-17T23:58:33.359Z,101194
